Time;durP1;ratioP1;P1;durP2;ratioP2;P2;SDS_P1;SDS_P2;PMS_P1;PMS_P2;Temp;Humidity;BMP_temperature;BMP_pressure;BME280_temperature;BME280_humidity;BME280_pressure;Samples;Min_cycle;Max_cycle;Signal;HPM_P1;HPM_P2
2022/10/20 00:01:16;;;;;;;;;;;;;;;2.03;86.53;101561.53;85980;1293;81424;-57
2022/10/20 00:03:23;;;;;;;;;;;;;;;2.01;86.55;101561.15;86047;1293;82791;-57
2022/10/20 00:05:32;;;;;;;;;;;;;;;1.97;86.53;101561.96;86036;1297;99820;-57
2022/10/20 00:07:40;;;;;;;;;;;;;;;1.93;86.59;101562.92;86068;1294;89035;-57
2022/10/20 00:09:49;;;;;;;;;;;;;;;1.93;86.51;101565.95;86035;1294;93932;-56
2022/10/20 00:11:56;;;;;;;;;;;;;;;1.90;86.73;101567.01;86000;1292;81767;-56
2022/10/20 00:14:04;;;;;;;;;;;;;;;1.90;86.77;101567.08;86019;1294;82049;-56
2022/10/20 00:16:14;;;;;;;;;;;;;;;1.87;86.76;101570.25;85973;1294;98709;-56
2022/10/20 00:18:23;;;;;;;;;;;;;;;1.89;86.78;101571.96;86003;1293;88738;-57
2022/10/20 00:20:30;;;;;;;;;;;;;;;1.90;86.74;101572.55;85974;1284;95302;-56
2022/10/20 00:22:37;;;;;;;;;;;;;;;1.91;86.82;101573.55;85980;1299;79807;-56
2022/10/20 00:24:45;;;;;;;;;;;;;;;1.90;86.87;101572.20;85997;1294;80456;-57
2022/10/20 00:26:52;;;;;;;;;;;;;;;1.88;86.84;101571.30;85933;1292;99430;-58
2022/10/20 00:29:01;;;;;;;;;;;;;;;1.86;86.85;101572.13;85964;1298;87712;-58
2022/10/20 00:31:09;;;;;;;;;;;;;;;1.84;86.78;101566.63;85941;1293;95186;-58
2022/10/20 00:33:16;;;;;;;;;;;;;;;1.81;86.91;101567.52;85938;1298;79400;-58
2022/10/20 00:35:22;;;;;;;;;;;;;;;1.79;86.92;101565.86;85970;1297;82176;-57
2022/10/20 00:37:29;;;;;;;;;;;;;;;1.77;87.00;101564.04;85973;1299;98044;-57
2022/10/20 00:39:38;;;;;;;;;;;;;;;1.75;86.96;101563.10;85968;1291;88181;-57
2022/10/20 00:41:45;;;;;;;;;;;;;;;1.70;86.96;101567.32;85985;1300;95497;-56
2022/10/20 00:43:54;;;;;;;;;;;;;;;1.68;86.91;101566.98;85957;1294;78170;-56
2022/10/20 00:46:00;;;;;;;;;;;;;;;1.62;86.99;101568.42;86017;1299;81604;-56
2022/10/20 00:48:14;;;;;;;;;;;;;;;1.59;87.23;101571.34;85984;1293;100086;-56
2022/10/20 00:50:24;;;;;;;;;;;;;;;1.53;87.22;101571.88;86056;1292;88521;-56
2022/10/20 00:52:31;;;;;;;;;;;;;;;1.47;87.22;101571.95;86058;1292;95916;-56
2022/10/20 00:54:38;;;;;;;;;;;;;;;1.43;87.28;101568.71;86017;1300;78953;-58
2022/10/20 00:56:47;;;;;;;;;;;;;;;1.38;87.32;101571.87;86044;1301;81248;-58
2022/10/20 00:58:55;;;;;;;;;;;;;;;1.36;87.32;101568.47;86036;1300;98214;-58
2022/10/20 01:01:02;;;;;;;;;;;;;;;1.32;87.37;101566.07;85999;1292;89169;-56
2022/10/20 01:03:15;;;;;;;;;;;;;;;1.29;87.40;101567.70;85980;1294;95313;-56
2022/10/20 01:05:23;;;;;;;;;;;;;;;1.25;87.46;101569.55;86003;1292;80000;-58
2022/10/20 01:07:30;;;;;;;;;;;;;;;1.20;87.50;101568.41;86010;1299;80540;-58
2022/10/20 01:09:39;;;;;;;;;;;;;;;1.17;87.57;101570.24;85980;1300;98413;-57
2022/10/20 01:11:51;;;;;;;;;;;;;;;1.14;87.76;101570.08;85960;1293;88403;-55
2022/10/20 01:14:21;;;;;;;;;;;;;;;1.11;87.82;101567.98;85959;1294;95040;-56
2022/10/20 01:16:36;;;;;;;;;;;;;;;1.10;87.74;101566.81;85920;1299;81021;-57
2022/10/20 01:18:51;;;;;;;;;;;;;;;1.08;87.80;101567.08;85945;1292;83572;-58
2022/10/20 01:21:22;;;;;;;;;;;;;;;1.09;87.77;101568.82;85969;1293;98461;-58
2022/10/20 01:23:48;;;;;;;;;;;;;;;1.08;87.92;101564.44;85980;1291;88343;-58
2022/10/20 01:26:08;;;;;;;;;;;;;;;1.10;87.93;101565.56;85958;1294;93352;-58
2022/10/20 01:28:20;;;;;;;;;;;;;;;1.12;88.02;101568.27;85958;1293;78885;-57
2022/10/20 01:30:27;;;;;;;;;;;;;;;1.14;88.04;101573.61;85994;1292;82014;-57
2022/10/20 01:32:44;;;;;;;;;;;;;;;1.18;88.11;101569.06;85999;1299;99768;-57
2022/10/20 01:34:56;;;;;;;;;;;;;;;1.20;88.10;101568.77;85981;1297;89132;-55
2022/10/20 01:37:06;;;;;;;;;;;;;;;1.23;88.03;101571.79;86005;1294;95146;-56
2022/10/20 01:39:17;;;;;;;;;;;;;;;1.28;88.05;101571.61;86020;1297;79317;-56
2022/10/20 01:41:32;;;;;;;;;;;;;;;1.33;87.96;101568.27;86071;1293;81646;-56
2022/10/20 01:43:40;;;;;;;;;;;;;;;1.37;87.99;101572.45;86093;1299;99809;-56
2022/10/20 01:45:50;;;;;;;;;;;;;;;1.40;87.94;101570.48;86083;1298;87530;-56
2022/10/20 01:47:58;;;;;;;;;;;;;;;1.38;87.96;101571.34;86002;1294;95517;-56
2022/10/20 01:50:11;;;;;;;;;;;;;;;1.36;87.95;101573.79;86003;1299;77140;-56
2022/10/20 01:52:18;;;;;;;;;;;;;;;1.32;87.97;101573.84;86032;1293;83028;-58
2022/10/20 01:54:27;;;;;;;;;;;;;;;1.29;87.90;101572.13;85998;1293;99363;-57
2022/10/20 01:56:40;;;;;;;;;;;;;;;1.25;87.93;101568.83;85960;1292;88970;-57
2022/10/20 01:59:25;;;;;;;;;;;;;;;1.19;87.86;101567.98;85973;1299;95371;-56
2022/10/20 02:01:48;;;;;;;;;;;;;;;1.13;87.91;101561.46;85946;1294;79320;-56
2022/10/20 02:03:57;;;;;;;;;;;;;;;1.09;87.95;101562.26;85967;1294;80620;-57
2022/10/20 02:06:13;;;;;;;;;;;;;;;1.04;87.90;101565.58;85975;1285;100136;-58
2022/10/20 02:08:26;;;;;;;;;;;;;;;0.98;88.04;101564.90;85981;1297;88246;-57
2022/10/20 02:10:40;;;;;;;;;;;;;;;0.94;88.01;101563.11;86004;1297;94376;-56
2022/10/20 02:12:52;;;;;;;;;;;;;;;0.88;87.98;101563.84;86014;1291;78765;-56
2022/10/20 02:15:00;;;;;;;;;;;;;;;0.83;88.05;101560.09;86022;1294;80985;-57
2022/10/20 02:17:11;;;;;;;;;;;;;;;0.79;88.08;101560.00;86012;1297;99378;-57
2022/10/20 02:19:20;;;;;;;;;;;;;;;0.76;88.16;101557.36;86025;1292;86957;-56
2022/10/20 02:21:27;;;;;;;;;;;;;;;0.74;88.14;101559.63;86050;1301;93830;-56
2022/10/20 02:23:37;;;;;;;;;;;;;;;0.70;88.19;101559.66;86031;1294;79738;-56
2022/10/20 02:25:45;;;;;;;;;;;;;;;0.66;88.22;101555.84;86052;1300;81776;-58
2022/10/20 02:27:54;;;;;;;;;;;;;;;0.63;88.28;101553.92;86038;1294;98557;-57
2022/10/20 02:30:03;;;;;;;;;;;;;;;0.59;88.35;101553.77;86026;1294;87783;-56
2022/10/20 02:32:12;;;;;;;;;;;;;;;0.56;88.31;101552.43;86018;1294;95476;-57
2022/10/20 02:34:19;;;;;;;;;;;;;;;0.53;88.42;101550.46;86060;1292;77781;-56
2022/10/20 02:36:29;;;;;;;;;;;;;;;0.50;88.49;101549.94;86029;1297;81998;-56
2022/10/20 02:38:39;;;;;;;;;;;;;;;0.49;88.50;101546.67;86027;1294;99515;-56
2022/10/20 02:40:46;;;;;;;;;;;;;;;0.48;88.56;101547.98;86022;1300;89194;-56
2022/10/20 02:42:53;;;;;;;;;;;;;;;0.46;88.61;101548.11;86023;1299;93243;-56
2022/10/20 02:45:00;;;;;;;;;;;;;;;0.44;88.56;101550.02;85970;1294;81644;-57
2022/10/20 02:47:07;;;;;;;;;;;;;;;0.45;88.69;101556.29;86007;1293;83026;-57
2022/10/20 02:49:14;;;;;;;;;;;;;;;0.46;88.73;101556.91;85974;1300;98857;-56
2022/10/20 02:51:21;;;;;;;;;;;;;;;0.49;88.85;101556.93;85976;1297;88722;-56
2022/10/20 02:53:28;;;;;;;;;;;;;;;0.51;88.99;101556.42;85993;1294;95722;-56
2022/10/20 02:55:35;;;;;;;;;;;;;;;0.54;88.96;101555.56;86001;1293;77911;-56
2022/10/20 02:57:43;;;;;;;;;;;;;;;0.53;88.88;101555.95;85982;1292;82840;-56
2022/10/20 02:59:53;;;;;;;;;;;;;;;0.53;88.95;101557.77;85991;1293;99402;-57
2022/10/20 03:02:00;;;;;;;;;;;;;;;0.52;88.95;101556.20;86003;1294;86464;-58
2022/10/20 03:04:07;;;;;;;;;;;;;;;0.53;88.90;101555.08;85976;1300;95156;-57
2022/10/20 03:06:17;;;;;;;;;;;;;;;0.54;88.88;101555.56;85989;1299;81293;-57
2022/10/20 03:08:24;;;;;;;;;;;;;;;0.54;89.00;101559.42;86004;1299;82280;-57
2022/10/20 03:10:32;;;;;;;;;;;;;;;0.57;88.95;101563.52;86040;1292;98402;-58
2022/10/20 03:12:39;;;;;;;;;;;;;;;0.58;89.01;101563.42;86020;1300;87306;-57
2022/10/20 03:14:46;;;;;;;;;;;;;;;0.60;88.89;101566.36;86040;1294;94556;-55
2022/10/20 03:16:53;;;;;;;;;;;;;;;0.67;88.93;101566.99;86008;1292;81463;-55
2022/10/20 03:19:00;;;;;;;;;;;;;;;0.69;89.13;101568.80;86068;1297;80636;-56
2022/10/20 03:21:07;;;;;;;;;;;;;;;0.70;89.06;101571.41;86009;1298;97737;-57
2022/10/20 03:23:16;;;;;;;;;;;;;;;0.70;89.05;101569.96;86003;1294;88396;-57
2022/10/20 03:25:25;;;;;;;;;;;;;;;0.72;89.03;101569.64;85985;1293;95192;-57
2022/10/20 03:27:32;;;;;;;;;;;;;;;0.74;89.06;101569.55;86023;1289;79619;-57
2022/10/20 03:29:39;;;;;;;;;;;;;;;0.72;88.99;101571.46;85997;1294;82409;-56
2022/10/20 03:31:46;;;;;;;;;;;;;;;0.68;88.95;101565.13;85957;1294;98527;-56
2022/10/20 03:33:53;;;;;;;;;;;;;;;0.66;88.88;101570.26;85998;1297;89460;-56
2022/10/20 03:36:00;;;;;;;;;;;;;;;0.63;88.85;101571.70;85984;1297;94967;-57
2022/10/20 03:38:07;;;;;;;;;;;;;;;0.60;88.77;101576.58;85929;1294;80649;-56
2022/10/20 03:40:15;;;;;;;;;;;;;;;0.56;88.69;101576.86;85969;1297;82178;-56
2022/10/20 03:42:22;;;;;;;;;;;;;;;0.57;88.84;101579.29;86008;1297;99854;-56
2022/10/20 03:44:28;;;;;;;;;;;;;;;0.58;88.78;101579.38;86002;1299;87318;-56
2022/10/20 03:46:36;;;;;;;;;;;;;;;0.55;88.80;101584.01;85958;1296;94441;-56
2022/10/20 03:48:43;;;;;;;;;;;;;;;0.49;88.75;101586.34;85983;1290;81419;-56
2022/10/20 03:50:50;;;;;;;;;;;;;;;0.48;88.77;101586.95;85993;1297;82891;-56
2022/10/20 03:52:59;;;;;;;;;;;;;;;0.44;88.57;101584.86;86005;1293;99431;-56
2022/10/20 03:55:09;;;;;;;;;;;;;;;0.41;88.67;101589.52;86006;1293;89041;-56
2022/10/20 03:57:17;;;;;;;;;;;;;;;0.38;88.60;101583.48;86018;1293;92707;-56
2022/10/20 03:59:25;;;;;;;;;;;;;;;0.37;88.54;101583.90;86021;1291;80873;-57
2022/10/20 04:01:33;;;;;;;;;;;;;;;0.34;88.56;101585.16;86034;1297;81540;-57
2022/10/20 04:03:44;;;;;;;;;;;;;;;0.37;88.59;101588.91;85994;1297;100150;-56
2022/10/20 04:05:51;;;;;;;;;;;;;;;0.36;88.61;101589.12;86046;1299;90659;-55
2022/10/20 04:07:57;;;;;;;;;;;;;;;0.32;88.56;101600.37;85977;1299;95707;-56
2022/10/20 04:10:05;;;;;;;;;;;;;;;0.28;88.56;101604.89;85973;1285;78051;-56
2022/10/20 04:12:13;;;;;;;;;;;;;;;0.25;88.79;101611.40;86026;1297;81808;-57
2022/10/20 04:14:20;;;;;;;;;;;;;;;0.23;88.75;101611.76;85969;1299;99469;-58
2022/10/20 04:16:27;;;;;;;;;;;;;;;0.20;88.76;101617.04;85957;1297;88609;-59
2022/10/20 04:18:34;;;;;;;;;;;;;;;0.15;88.71;101617.70;85955;1297;93335;-56
2022/10/20 04:20:41;;;;;;;;;;;;;;;0.11;88.76;101613.71;85975;1294;79997;-58
2022/10/20 04:22:48;;;;;;;;;;;;;;;0.10;88.76;101611.80;85944;1297;82870;-59
2022/10/20 04:24:55;;;;;;;;;;;;;;;0.08;88.74;101611.95;85952;1292;99398;-55
2022/10/20 04:27:03;;;;;;;;;;;;;;;0.07;88.70;101612.22;85959;1294;88614;-56
2022/10/20 04:29:10;;;;;;;;;;;;;;;0.07;88.69;101609.54;85929;1298;95358;-57
2022/10/20 04:31:19;;;;;;;;;;;;;;;0.08;88.78;101608.98;85951;1290;80701;-56
2022/10/20 04:33:28;;;;;;;;;;;;;;;0.10;88.86;101604.95;85983;1298;81735;-55
2022/10/20 04:35:36;;;;;;;;;;;;;;;0.10;88.79;101607.73;85973;1297;97872;-56
2022/10/20 04:37:43;;;;;;;;;;;;;;;0.12;88.75;101608.86;85968;1297;89122;-57
2022/10/20 04:39:50;;;;;;;;;;;;;;;0.11;88.88;101613.38;85948;1298;94190;-57
2022/10/20 04:41:58;;;;;;;;;;;;;;;0.12;89.06;101614.91;85973;1297;80410;-57
2022/10/20 04:44:06;;;;;;;;;;;;;;;0.13;89.07;101614.65;85988;1291;80065;-57
2022/10/20 04:46:16;;;;;;;;;;;;;;;0.12;88.96;101613.30;86006;1291;98491;-57
2022/10/20 04:48:27;;;;;;;;;;;;;;;0.09;88.98;101612.27;86014;1297;87884;-57
2022/10/20 04:50:34;;;;;;;;;;;;;;;0.08;89.04;101613.76;85728;1292;94362;-56
2022/10/20 04:52:41;;;;;;;;;;;;;;;0.07;88.93;101611.31;85991;1297;81189;-56
2022/10/20 04:54:49;;;;;;;;;;;;;;;0.05;88.91;101610.36;86011;1294;81867;-57
2022/10/20 04:57:00;;;;;;;;;;;;;;;0.00;88.94;101606.91;85952;1294;99950;-57
2022/10/20 04:59:09;;;;;;;;;;;;;;;-0.01;88.99;101608.41;85971;1297;87464;-55
2022/10/20 05:01:19;;;;;;;;;;;;;;;-0.02;89.00;101612.52;85947;1294;95208;-56
2022/10/20 05:03:29;;;;;;;;;;;;;;;-0.00;89.14;101613.16;85967;1297;79538;-56
2022/10/20 05:05:36;;;;;;;;;;;;;;;0.01;89.14;101615.39;85979;1299;81177;-55
2022/10/20 05:07:44;;;;;;;;;;;;;;;-0.00;89.22;101620.60;85970;1297;99487;-56
2022/10/20 05:09:52;;;;;;;;;;;;;;;-0.01;89.22;101619.22;85959;1297;86858;-57
2022/10/20 05:12:00;;;;;;;;;;;;;;;0.00;89.10;101623.05;85970;1297;94956;-58
2022/10/20 05:14:09;;;;;;;;;;;;;;;0.00;89.17;101626.93;85999;1297;81791;-57
2022/10/20 05:16:17;;;;;;;;;;;;;;;-0.00;89.18;101625.19;86003;1298;81531;-56
2022/10/20 05:18:26;;;;;;;;;;;;;;;0.02;89.23;101622.80;86008;1294;100020;-57
2022/10/20 05:20:34;;;;;;;;;;;;;;;0.05;89.30;101623.29;86049;1292;89348;-57
2022/10/20 05:22:41;;;;;;;;;;;;;;;0.06;89.10;101626.27;86023;1292;93397;-56
2022/10/20 05:24:48;;;;;;;;;;;;;;;0.07;89.03;101628.14;86062;1291;80829;-56
2022/10/20 05:26:55;;;;;;;;;;;;;;;0.09;89.19;101632.11;86023;1298;81643;-57
2022/10/20 05:29:03;;;;;;;;;;;;;;;0.13;89.29;101636.10;86018;1293;99475;-57
2022/10/20 05:31:10;;;;;;;;;;;;;;;0.18;89.27;101638.41;86050;1297;86089;-58
2022/10/20 05:33:18;;;;;;;;;;;;;;;0.21;89.38;101636.32;85983;1297;94420;-59
2022/10/20 05:35:29;;;;;;;;;;;;;;;0.26;89.37;101639.91;85997;1301;81809;-56
2022/10/20 05:37:38;;;;;;;;;;;;;;;0.32;89.42;101641.49;85985;1286;82171;-56
2022/10/20 05:39:45;;;;;;;;;;;;;;;0.40;89.50;101640.43;85980;1294;99657;-57
2022/10/20 05:41:52;;;;;;;;;;;;;;;0.50;89.67;101647.63;85961;1297;88561;-57
2022/10/20 05:44:01;;;;;;;;;;;;;;;0.64;89.87;101648.50;85965;1292;94019;-57
2022/10/20 05:46:09;;;;;;;;;;;;;;;0.79;90.00;101645.27;85944;1285;81507;-56
2022/10/20 05:48:16;;;;;;;;;;;;;;;0.89;90.02;101645.89;85990;1298;81695;-57
2022/10/20 05:50:24;;;;;;;;;;;;;;;1.01;90.25;101646.50;85966;1297;99028;-56
2022/10/20 05:52:30;;;;;;;;;;;;;;;1.10;90.25;101648.73;85972;1297;88894;-56
2022/10/20 05:54:37;;;;;;;;;;;;;;;1.21;90.23;101652.80;85980;1292;93416;-57
2022/10/20 05:56:45;;;;;;;;;;;;;;;1.32;90.15;101657.95;85982;1299;80128;-57
2022/10/20 05:58:54;;;;;;;;;;;;;;;1.41;90.18;101656.48;86003;1297;81162;-57
2022/10/20 06:01:12;;;;;;;;;;;;;;;1.52;90.27;101655.89;86028;1294;99712;-56
2022/10/20 06:03:19;;;;;;;;;;;;;;;1.61;90.19;101657.77;86021;1297;86794;-57
2022/10/20 06:05:27;;;;;;;;;;;;;;;1.70;90.18;101654.91;86010;1294;94008;-57
2022/10/20 06:07:34;;;;;;;;;;;;;;;1.77;90.06;101654.04;85964;1294;81936;-56
2022/10/20 06:09:42;;;;;;;;;;;;;;;1.86;90.05;101656.52;86048;1291;82538;-57
2022/10/20 06:11:50;;;;;;;;;;;;;;;1.95;90.02;101657.51;86067;1297;99265;-57
2022/10/20 06:13:57;;;;;;;;;;;;;;;2.04;89.96;101658.80;86027;1297;87572;-57
2022/10/20 06:16:06;;;;;;;;;;;;;;;2.14;90.00;101661.80;85994;1297;95484;-57
2022/10/20 06:18:19;;;;;;;;;;;;;;;2.20;89.91;101661.46;86059;1297;80989;-56
2022/10/20 06:20:26;;;;;;;;;;;;;;;2.26;89.82;101662.41;86030;1300;81114;-58
2022/10/20 06:22:36;;;;;;;;;;;;;;;2.29;89.70;101668.26;86038;1297;98306;-57
2022/10/20 06:24:45;;;;;;;;;;;;;;;2.33;89.70;101668.00;85989;1292;88850;-57
2022/10/20 06:26:52;;;;;;;;;;;;;;;2.39;89.78;101668.43;85878;1292;96935;-58
2022/10/20 06:29:00;;;;;;;;;;;;;;;2.51;89.93;101666.05;85970;1297;80938;-55
2022/10/20 06:31:14;;;;;;;;;;;;;;;2.63;89.90;101667.80;85985;1297;80268;-57
2022/10/20 06:33:21;;;;;;;;;;;;;;;2.79;89.87;101668.96;85984;1291;98903;-57
2022/10/20 06:35:30;;;;;;;;;;;;;;;2.96;90.01;101672.42;86020;1292;88508;-56
2022/10/20 06:37:37;;;;;;;;;;;;;;;3.12;89.92;101677.33;85994;1297;95282;-56
2022/10/20 06:39:44;;;;;;;;;;;;;;;3.28;90.10;101675.80;85996;1299;80492;-58
2022/10/20 06:41:53;;;;;;;;;;;;;;;3.45;90.23;101680.55;86037;1297;82625;-57
2022/10/20 06:44:01;;;;;;;;;;;;;;;3.66;90.42;101683.67;86004;1299;99960;-57
2022/10/20 06:46:12;;;;;;;;;;;;;;;3.81;90.29;101686.05;86056;1297;87695;-58
2022/10/20 06:48:20;;;;;;;;;;;;;;;3.94;90.27;101688.61;86025;1292;93328;-58
2022/10/20 06:50:27;;;;;;;;;;;;;;;4.03;89.98;101688.67;86047;1297;80520;-54
2022/10/20 06:52:35;;;;;;;;;;;;;;;4.13;89.83;101689.43;86048;1297;83096;-56
2022/10/20 06:54:42;;;;;;;;;;;;;;;4.21;89.55;101687.13;86017;1297;99912;-57
2022/10/20 06:56:50;;;;;;;;;;;;;;;4.28;89.52;101689.23;86033;1299;89171;-56
2022/10/20 06:58:58;;;;;;;;;;;;;;;4.40;89.49;101692.72;86055;1294;95046;-56
2022/10/20 07:01:09;;;;;;;;;;;;;;;4.53;89.43;101692.60;85971;1291;78727;-57
2022/10/20 07:03:16;;;;;;;;;;;;;;;4.64;89.41;101697.30;86002;1297;82873;-57
2022/10/20 07:05:23;;;;;;;;;;;;;;;4.69;89.22;101697.80;86006;1297;99353;-57
2022/10/20 07:07:32;;;;;;;;;;;;;;;4.70;88.77;101700.53;85993;1293;88269;-56
2022/10/20 07:09:43;;;;;;;;;;;;;;;4.76;88.80;101697.06;86033;1297;94225;-57
2022/10/20 07:11:53;;;;;;;;;;;;;;;4.84;88.87;101704.41;85969;1297;79968;-57
2022/10/20 07:14:03;;;;;;;;;;;;;;;5.04;89.13;101702.99;85996;1297;81036;-56
2022/10/20 07:16:11;;;;;;;;;;;;;;;5.24;89.10;101701.04;85973;1299;98010;-57
2022/10/20 07:18:19;;;;;;;;;;;;;;;5.33;88.91;101701.51;86018;1291;88541;-57
2022/10/20 07:20:27;;;;;;;;;;;;;;;5.36;88.63;101700.42;86019;1291;94147;-57
2022/10/20 07:22:37;;;;;;;;;;;;;;;5.45;88.46;101702.41;86022;1292;77945;-57
2022/10/20 07:24:46;;;;;;;;;;;;;;;5.53;88.39;101706.38;86026;1299;81460;-58
2022/10/20 07:26:54;;;;;;;;;;;;;;;5.76;88.52;101709.46;86034;1297;99529;-58
2022/10/20 07:29:03;;;;;;;;;;;;;;;5.97;88.24;101712.20;86066;1297;88823;-57
2022/10/20 07:31:12;;;;;;;;;;;;;;;6.25;87.42;101715.86;85996;1297;93587;-58
2022/10/20 07:33:26;;;;;;;;;;;;;;;6.48;87.25;101718.17;86042;1297;81227;-58
2022/10/20 07:35:34;;;;;;;;;;;;;;;6.68;87.34;101722.23;86085;1294;81615;-57
2022/10/20 07:37:44;;;;;;;;;;;;;;;7.32;87.83;101718.69;86040;1291;99395;-58
2022/10/20 07:39:51;;;;;;;;;;;;;;;8.00;87.80;101715.48;86020;1294;88627;-57
2022/10/20 07:42:00;;;;;;;;;;;;;;;8.24;87.18;101715.80;85916;1301;94294;-57
2022/10/20 07:44:08;;;;;;;;;;;;;;;8.32;86.97;101714.32;86020;1297;80335;-58
2022/10/20 07:46:16;;;;;;;;;;;;;;;8.47;86.56;101716.33;85991;1297;81553;-58
2022/10/20 07:48:24;;;;;;;;;;;;;;;8.48;86.21;101715.70;86016;1292;98904;-59
2022/10/20 07:50:31;;;;;;;;;;;;;;;8.38;85.61;101714.32;85982;1299;87842;-58
2022/10/20 07:52:40;;;;;;;;;;;;;;;8.33;85.21;101716.07;85991;1297;95262;-57
2022/10/20 07:54:47;;;;;;;;;;;;;;;8.39;85.32;101717.06;86015;1299;79277;-58
2022/10/20 07:56:56;;;;;;;;;;;;;;;8.62;85.45;101715.92;85972;1297;82411;-59
2022/10/20 07:59:04;;;;;;;;;;;;;;;8.83;85.29;101716.11;86029;1299;98012;-58
2022/10/20 08:01:14;;;;;;;;;;;;;;;9.21;85.20;101715.33;86071;1297;88938;-59
2022/10/20 08:03:21;;;;;;;;;;;;;;;9.47;84.67;101712.05;86079;1297;95081;-56
2022/10/20 08:05:28;;;;;;;;;;;;;;;9.65;84.40;101706.44;86003;1297;78909;-58
2022/10/20 08:07:36;;;;;;;;;;;;;;;9.73;84.24;101702.61;86017;1297;82159;-57
2022/10/20 08:09:44;;;;;;;;;;;;;;;9.72;83.83;101702.00;86015;1294;97959;-56
2022/10/20 08:11:52;;;;;;;;;;;;;;;9.71;83.59;101702.22;85965;1297;87557;-57
2022/10/20 08:14:01;;;;;;;;;;;;;;;9.71;83.19;101703.30;85975;1291;93069;-58
2022/10/20 08:16:10;;;;;;;;;;;;;;;9.59;82.73;101702.68;85986;1297;80888;-57
2022/10/20 08:18:17;;;;;;;;;;;;;;;9.50;82.80;101702.21;85972;1297;82023;-57
2022/10/20 08:20:28;;;;;;;;;;;;;;;9.54;82.75;101710.05;85976;1297;97643;-58
2022/10/20 08:22:36;;;;;;;;;;;;;;;9.40;82.32;101711.98;85970;1297;88532;-58
2022/10/20 08:24:43;;;;;;;;;;;;;;;9.49;82.47;101712.04;85969;1297;95359;-59
2022/10/20 08:26:51;;;;;;;;;;;;;;;9.60;82.38;101705.88;85988;1297;80464;-58
2022/10/20 08:28:58;;;;;;;;;;;;;;;9.62;82.25;101711.27;86005;1299;80562;-58
2022/10/20 08:31:08;;;;;;;;;;;;;;;9.66;82.28;101709.71;86008;1298;99396;-59
2022/10/20 08:33:15;;;;;;;;;;;;;;;9.78;82.45;101710.55;86054;1298;89065;-58
2022/10/20 08:35:27;;;;;;;;;;;;;;;9.91;82.34;101711.39;86018;1297;94544;-59
2022/10/20 08:37:35;;;;;;;;;;;;;;;10.01;82.09;101713.02;85982;1297;78506;-58
2022/10/20 08:39:43;;;;;;;;;;;;;;;9.97;81.34;101714.71;85995;1297;82030;-58
2022/10/20 08:41:52;;;;;;;;;;;;;;;9.92;81.46;101715.04;85966;1292;99932;-57
2022/10/20 08:44:00;;;;;;;;;;;;;;;9.93;81.55;101717.30;86015;1292;88368;-57
2022/10/20 08:46:11;;;;;;;;;;;;;;;9.94;81.34;101714.88;85945;1297;94884;-57
2022/10/20 08:48:21;;;;;;;;;;;;;;;9.97;81.20;101717.96;85966;1295;80568;-59
2022/10/20 08:50:30;;;;;;;;;;;;;;;9.93;80.68;101717.23;86005;1297;81739;-58
2022/10/20 08:52:40;;;;;;;;;;;;;;;9.89;80.66;101713.70;85961;1297;100065;-58
2022/10/20 08:54:52;;;;;;;;;;;;;;;9.92;80.55;101714.02;85972;1297;88986;-58
2022/10/20 08:57:00;;;;;;;;;;;;;;;9.92;80.62;101712.54;85972;1296;94570;-58
2022/10/20 08:59:25;;;;;;;;;;;;;;;9.93;80.54;101712.77;85962;1291;78645;-59
2022/10/20 09:01:38;;;;;;;;;;;;;;;9.96;80.58;101708.73;86007;1297;82655;-59
2022/10/20 09:03:50;;;;;;;;;;;;;;;10.04;80.62;101704.66;85998;1295;99557;-59
2022/10/20 09:06:02;;;;;;;;;;;;;;;10.19;80.72;101703.58;86037;1299;88455;-58
2022/10/20 09:08:09;;;;;;;;;;;;;;;10.39;80.59;101703.60;86040;1298;94726;-57
2022/10/20 09:10:27;;;;;;;;;;;;;;;10.50;80.34;101703.34;85980;1292;79522;-58
2022/10/20 09:12:39;;;;;;;;;;;;;;;10.72;80.14;101705.77;85975;1297;82774;-58
2022/10/20 09:14:46;;;;;;;;;;;;;;;11.43;81.17;101701.08;85983;1299;99094;-58
2022/10/20 09:16:56;;;;;;;;;;;;;;;12.54;81.20;101700.09;86004;1292;89122;-58
2022/10/20 09:19:06;;;;;;;;;;;;;;;13.60;80.37;101697.05;85883;1300;97396;-60
2022/10/20 09:21:16;;;;;;;;;;;;;;;14.48;79.69;101699.63;85966;1294;79978;-60
2022/10/20 09:23:27;;;;;;;;;;;;;;;15.14;78.02;101701.86;85961;1297;81362;-59
2022/10/20 09:25:35;;;;;;;;;;;;;;;15.74;76.68;101700.19;85961;1297;99858;-58
2022/10/20 09:27:46;;;;;;;;;;;;;;;16.40;75.92;101701.26;85954;1297;87625;-58
2022/10/20 09:29:53;;;;;;;;;;;;;;;17.07;74.54;101699.98;85954;1297;94024;-59
2022/10/20 09:32:01;;;;;;;;;;;;;;;17.60;73.42;101690.39;85953;1297;79881;-58
2022/10/20 09:34:24;;;;;;;;;;;;;;;17.79;71.78;101688.34;85997;1299;81512;-58
2022/10/20 09:36:35;;;;;;;;;;;;;;;17.97;69.65;101691.73;86004;1293;97431;-58
2022/10/20 09:38:44;;;;;;;;;;;;;;;17.98;68.40;101689.78;86032;1297;87864;-59
2022/10/20 09:41:05;;;;;;;;;;;;;;;18.01;65.98;101690.44;86029;1297;93851;-58
2022/10/20 09:43:16;;;;;;;;;;;;;;;17.64;66.20;101691.89;86052;1297;80073;-59
2022/10/20 09:45:27;;;;;;;;;;;;;;;17.31;66.06;101694.11;86008;1296;82704;-58
2022/10/20 09:47:35;;;;;;;;;;;;;;;17.30;66.25;101690.57;85955;1297;99445;-59
2022/10/20 09:49:44;;;;;;;;;;;;;;;17.26;65.16;101691.71;86007;1298;88429;-59
2022/10/20 09:51:52;;;;;;;;;;;;;;;16.82;64.94;101692.33;85987;1291;95617;-59
2022/10/20 09:54:02;;;;;;;;;;;;;;;16.45;65.15;101692.97;85957;1299;79823;-59
2022/10/20 09:56:11;;;;;;;;;;;;;;;16.00;64.60;101693.48;85988;1297;80848;-60
2022/10/20 09:58:24;;;;;;;;;;;;;;;15.48;64.80;101691.81;85949;1297;98685;-60
2022/10/20 10:00:35;;;;;;;;;;;;;;;14.98;64.90;101693.34;85992;1297;87414;-60
2022/10/20 10:02:42;;;;;;;;;;;;;;;14.61;65.09;101690.41;85959;1297;95414;-58
2022/10/20 10:04:53;;;;;;;;;;;;;;;14.13;64.95;101685.11;86010;1299;80812;-67
2022/10/20 10:07:00;;;;;;;;;;;;;;;13.80;65.81;101683.70;86018;1299;83137;-57
2022/10/20 10:09:29;;;;;;;;;;;;;;;13.59;66.30;101681.16;86026;1292;99507;-58
2022/10/20 10:11:37;;;;;;;;;;;;;;;13.20;66.06;101687.52;86018;1291;87322;-58
2022/10/20 10:13:51;;;;;;;;;;;;;;;13.03;66.70;101685.68;86019;1291;94322;-58
2022/10/20 10:16:08;;;;;;;;;;;;;;;12.94;67.11;101683.97;85979;1299;81409;-59
2022/10/20 10:18:21;;;;;;;;;;;;;;;12.83;66.97;101684.95;86048;1299;81894;-58
2022/10/20 10:20:39;;;;;;;;;;;;;;;12.59;66.83;101683.14;85975;1292;98911;-60
2022/10/20 10:22:47;;;;;;;;;;;;;;;12.39;66.48;101676.99;85975;1293;87523;-59
2022/10/20 10:24:58;;;;;;;;;;;;;;;12.07;65.52;101679.97;85979;1292;94880;-59
2022/10/20 10:27:20;;;;;;;;;;;;;;;12.07;66.73;101680.41;85915;1300;80018;-59
2022/10/20 10:29:36;;;;;;;;;;;;;;;12.19;66.96;101676.92;86005;1299;82133;-58
2022/10/20 10:31:46;;;;;;;;;;;;;;;12.29;66.83;101676.77;85984;1297;99876;-58
2022/10/20 10:33:58;;;;;;;;;;;;;;;12.31;67.03;101672.90;85976;1291;89078;-59
2022/10/20 10:36:11;;;;;;;;;;;;;;;12.52;67.63;101669.13;85975;1298;94249;-59
2022/10/20 10:38:21;;;;;;;;;;;;;;;12.76;67.77;101664.85;85977;1299;79996;-59
2022/10/20 10:40:36;;;;;;;;;;;;;;;12.89;67.61;101661.64;86055;1297;82337;-59
2022/10/20 10:42:56;;;;;;;;;;;;;;;13.05;67.56;101658.59;86025;1291;98519;-59
2022/10/20 10:45:12;;;;;;;;;;;;;;;13.29;67.50;101654.73;86018;1292;89169;-59
2022/10/20 10:47:31;;;;;;;;;;;;;;;13.29;66.42;101650.90;86086;1297;93842;-59
2022/10/20 10:49:48;;;;;;;;;;;;;;;13.00;65.87;101656.38;86042;1299;80582;-59
2022/10/20 10:52:05;;;;;;;;;;;;;;;12.91;65.89;101655.40;86027;1291;82227;-59
2022/10/20 10:54:22;;;;;;;;;;;;;;;12.79;65.85;101653.32;86024;1294;99297;-59
2022/10/20 10:56:37;;;;;;;;;;;;;;;12.72;65.72;101654.52;85994;1285;87065;-59
2022/10/20 10:59:05;;;;;;;;;;;;;;;12.47;65.22;101653.58;86010;1294;92603;-59
2022/10/20 11:01:27;;;;;;;;;;;;;;;12.28;65.01;101648.13;85999;1292;79995;-58
2022/10/20 11:04:10;;;;;;;;;;;;;;;12.18;65.23;101644.35;85975;1297;82115;-58
2022/10/20 11:06:28;;;;;;;;;;;;;;;12.04;65.49;101642.27;85945;1299;99339;-59
2022/10/20 11:08:49;;;;;;;;;;;;;;;11.92;65.53;101641.49;86026;1297;88941;-59
2022/10/20 11:11:03;;;;;;;;;;;;;;;11.85;65.82;101638.70;86016;1297;96095;-59
2022/10/20 11:13:22;;;;;;;;;;;;;;;11.74;65.95;101635.13;85969;1297;80153;-59
2022/10/20 11:15:44;;;;;;;;;;;;;;;11.62;66.12;101629.98;85994;1296;82599;-60